Time,TemperatureF,DewpointF,PressureIn,WindDirection,WindDirectionDegrees,WindSpeedMPH,WindSpeedGustMPH,Humidity,HourlyPrecipIn,Conditions,Clouds,dailyrainin,SolarRadiationWatts/m^2,SoftwareType,DateUTC
2013-03-14 00:33:00,25.0,13.0,-100.00,NNE,12,9.0,18.0,59,0.00,,,0.00,0.000000,,2013-03-14 04:33:00,
2013-03-14 00:42:00,25.0,13.0,-100.00,NNE,12,9.0,18.0,59,0.00,,,0.00,0.000000,,2013-03-14 04:42:00,
2013-03-14 00:53:00,25.0,13.0,-100.00,NNE,12,9.0,18.0,59,0.00,,,0.00,0.000000,,2013-03-14 04:53:00,
2013-03-14 01:02:00,25.0,13.0,-100.00,NNE,12,9.0,18.0,59,0.00,,,0.00,0.000000,,2013-03-14 05:02:00,
2013-03-14 01:33:00,24.0,12.0,-100.00,North,9,7.0,20.0,60,0.00,,,0.00,0.000000,,2013-03-14 05:33:00,
2013-03-14 01:42:00,24.0,12.0,-100.00,North,9,7.0,20.0,60,0.00,,,0.00,0.000000,,2013-03-14 05:42:00,
2013-03-14 01:53:00,24.0,12.0,-100.00,North,9,7.0,20.0,60,0.00,,,0.00,0.000000,,2013-03-14 05:53:00,
2013-03-14 02:02:00,24.0,12.0,-100.00,North,9,7.0,20.0,60,0.00,,,0.00,0.000000,,2013-03-14 06:02:00,
2013-03-14 02:33:00,22.0,11.0,-100.00,NNE,13,6.0,19.0,63,0.00,,,0.00,0.000000,,2013-03-14 06:33:00,
2013-03-14 02:42:00,22.0,11.0,-100.00,NNE,13,6.0,19.0,63,0.00,,,0.00,0.000000,,2013-03-14 06:42:00,
2013-03-14 02:52:00,22.0,11.0,-100.00,NNE,13,6.0,19.0,63,0.00,,,0.00,0.000000,,2013-03-14 06:52:00,
2013-03-14 03:02:00,22.0,11.0,-100.00,NNE,13,6.0,19.0,63,0.00,,,0.00,0.000000,,2013-03-14 07:02:00,
2013-03-14 03:32:00,22.0,11.0,-100.00,North,8,7.0,21.0,63,0.00,,,0.00,0.000000,,2013-03-14 07:32:00,
2013-03-14 03:43:00,22.0,11.0,-100.00,North,8,7.0,21.0,63,0.00,,,0.00,0.000000,,2013-03-14 07:43:00,
2013-03-14 03:52:00,22.0,11.0,-100.00,North,8,7.0,21.0,63,0.00,,,0.00,0.000000,,2013-03-14 07:52:00,
2013-03-14 04:02:00,22.0,11.0,-100.00,North,8,7.0,21.0,63,0.00,,,0.00,0.000000,,2013-03-14 08:02:00,
2013-03-14 04:32:00,21.0,10.0,-100.00,North,8,8.0,19.0,63,0.00,,,0.00,0.000000,,2013-03-14 08:32:00,
2013-03-14 04:42:00,21.0,10.0,-100.00,North,8,8.0,19.0,63,0.00,,,0.00,0.000000,,2013-03-14 08:42:00,
2013-03-14 04:52:00,21.0,10.0,-100.00,North,8,8.0,19.0,63,0.00,,,0.00,0.000000,,2013-03-14 08:52:00,
2013-03-14 05:02:00,21.0,10.0,-100.00,North,8,8.0,19.0,63,0.00,,,0.00,0.000000,,2013-03-14 09:02:00,
2013-03-14 05:32:00,20.0,10.0,-100.00,North,11,10.0,24.0,64,0.00,,,0.00,0.000000,,2013-03-14 09:32:00,
2013-03-14 05:42:00,20.0,10.0,-100.00,North,11,10.0,24.0,64,0.00,,,0.00,0.000000,,2013-03-14 09:42:00,
2013-03-14 05:52:00,20.0,10.0,-100.00,North,11,10.0,24.0,64,0.00,,,0.00,0.000000,,2013-03-14 09:52:00,
2013-03-14 06:02:00,20.0,10.0,-100.00,North,11,10.0,24.0,64,0.00,,,0.00,0.000000,,2013-03-14 10:02:00,
2013-03-14 06:32:00,20.0,9.0,-100.00,North,10,8.0,22.0,63,0.00,,,0.00,0.000000,,2013-03-14 10:32:00,
2013-03-14 06:42:00,20.0,9.0,-100.00,North,10,8.0,22.0,63,0.00,,,0.00,0.000000,,2013-03-14 10:42:00,
2013-03-14 06:52:00,20.0,9.0,-100.00,North,10,8.0,22.0,63,0.00,,,0.00,0.000000,,2013-03-14 10:52:00,
2013-03-14 07:02:00,20.0,9.0,-100.00,North,10,8.0,22.0,63,0.00,,,0.00,0.000000,,2013-03-14 11:02:00,
2013-03-14 07:22:00,20.0,9.0,-100.00,North,11,8.0,21.0,61,0.00,,,0.00,0.000000,,2013-03-14 11:22:00,
2013-03-14 07:33:00,20.0,9.0,-100.00,North,11,8.0,21.0,61,0.00,,,0.00,0.000000,,2013-03-14 11:33:00,
2013-03-14 07:42:00,20.0,9.0,-100.00,North,11,8.0,21.0,61,0.00,,,0.00,0.000000,,2013-03-14 11:42:00,
2013-03-14 07:53:00,20.0,9.0,-100.00,North,11,8.0,21.0,61,0.00,,,0.00,0.000000,,2013-03-14 11:53:00,
2013-03-14 08:02:00,20.0,9.0,-100.00,North,11,8.0,21.0,61,0.00,,,0.00,0.000000,,2013-03-14 12:02:00,
2013-03-14 08:33:00,20.0,6.0,-100.00,NNE,13,7.0,20.0,55,0.00,,,0.00,4.000000,,2013-03-14 12:33:00,
2013-03-14 08:43:00,20.0,6.0,-100.00,NNE,13,7.0,20.0,55,0.00,,,0.00,4.000000,,2013-03-14 12:43:00,
2013-03-14 08:52:00,20.0,6.0,-100.00,NNE,13,7.0,20.0,55,0.00,,,0.00,4.000000,,2013-03-14 12:52:00,
2013-03-14 09:03:00,20.0,6.0,-100.00,NNE,13,7.0,20.0,55,0.00,,,0.00,4.000000,,2013-03-14 13:03:00,
2013-03-14 09:32:00,26.0,6.0,-100.00,NNE,22,6.0,16.0,42,0.00,,,0.00,75.000000,,2013-03-14 13:32:00,
2013-03-14 09:43:00,26.0,6.0,-100.00,NNE,22,6.0,16.0,42,0.00,,,0.00,75.000000,,2013-03-14 13:43:00,
2013-03-14 09:52:00,26.0,6.0,-100.00,NNE,22,6.0,16.0,42,0.00,,,0.00,75.000000,,2013-03-14 13:52:00,
2013-03-14 10:02:00,26.0,6.0,-100.00,NNE,22,6.0,16.0,42,0.00,,,0.00,75.000000,,2013-03-14 14:02:00,
2013-03-14 10:22:00,30.0,5.0,-100.00,NNW,337,5.0,19.0,34,0.00,,,0.00,299.000000,,2013-03-14 14:22:00,
2013-03-14 10:32:00,30.0,5.0,-100.00,NNW,337,5.0,19.0,34,0.00,,,0.00,299.000000,,2013-03-14 14:32:00,
2013-03-14 10:42:00,30.0,5.0,-100.00,NNW,337,5.0,19.0,34,0.00,,,0.00,299.000000,,2013-03-14 14:42:00,
2013-03-14 10:53:00,30.0,5.0,-100.00,NNW,337,5.0,19.0,34,0.00,,,0.00,299.000000,,2013-03-14 14:53:00,
2013-03-14 11:02:00,30.0,5.0,-100.00,NNW,337,5.0,19.0,34,0.00,,,0.00,299.000000,,2013-03-14 15:02:00,
2013-03-14 11:22:00,34.0,3.0,-100.00,NE,41,6.0,17.0,26,0.00,,,0.00,551.000000,,2013-03-14 15:22:00,
2013-03-14 11:33:00,34.0,3.0,-100.00,NE,41,6.0,17.0,26,0.00,,,0.00,551.000000,,2013-03-14 15:33:00,
2013-03-14 11:43:00,34.0,3.0,-100.00,NE,41,6.0,17.0,26,0.00,,,0.00,551.000000,,2013-03-14 15:43:00,
2013-03-14 11:52:00,34.0,3.0,-100.00,NE,41,6.0,17.0,26,0.00,,,0.00,551.000000,,2013-03-14 15:52:00,
2013-03-14 12:03:00,34.0,3.0,-100.00,NE,41,6.0,17.0,26,0.00,,,0.00,551.000000,,2013-03-14 16:03:00,
2013-03-14 12:23:00,36.0,1.0,-100.00,NE,45,8.0,18.0,22,0.00,,,0.00,704.000000,,2013-03-14 16:23:00,
2013-03-14 12:33:00,36.0,1.0,-100.00,NE,45,8.0,18.0,22,0.00,,,0.00,704.000000,,2013-03-14 16:33:00,
2013-03-14 12:42:00,36.0,1.0,-100.00,NE,45,8.0,18.0,22,0.00,,,0.00,704.000000,,2013-03-14 16:42:00,
2013-03-14 12:52:00,36.0,1.0,-100.00,NE,45,8.0,18.0,22,0.00,,,0.00,704.000000,,2013-03-14 16:52:00,
2013-03-14 13:02:00,36.0,1.0,-100.00,NE,45,8.0,18.0,22,0.00,,,0.00,704.000000,,2013-03-14 17:02:00,
2013-03-14 13:33:00,40.0,0.0,-100.00,ENE,57,6.0,15.0,18,0.00,,,0.00,846.000000,,2013-03-14 17:33:00,
2013-03-14 13:42:00,40.0,0.0,-100.00,ENE,57,6.0,15.0,18,0.00,,,0.00,846.000000,,2013-03-14 17:42:00,
2013-03-14 13:53:00,40.0,0.0,-100.00,ENE,57,6.0,15.0,18,0.00,,,0.00,846.000000,,2013-03-14 17:53:00,
2013-03-14 14:03:00,40.0,0.0,-100.00,ENE,57,6.0,15.0,18,0.00,,,0.00,846.000000,,2013-03-14 18:03:00,
2013-03-14 14:23:00,44.0,3.0,-100.00,North,4,6.0,14.0,18,0.00,,,0.00,911.000000,,2013-03-14 18:23:00,
2013-03-14 14:33:00,44.0,3.0,-100.00,North,4,6.0,14.0,18,0.00,,,0.00,911.000000,,2013-03-14 18:33:00,
2013-03-14 14:43:00,44.0,3.0,-100.00,North,4,6.0,14.0,18,0.00,,,0.00,911.000000,,2013-03-14 18:43:00,
2013-03-14 14:53:00,44.0,3.0,-100.00,North,4,6.0,14.0,18,0.00,,,0.00,911.000000,,2013-03-14 18:53:00,
2013-03-14 15:03:00,44.0,3.0,-100.00,North,4,6.0,14.0,18,0.00,,,0.00,911.000000,,2013-03-14 19:03:00,
2013-03-14 15:23:00,48.0,7.0,-100.00,NNW,341,4.0,11.0,18,0.00,,,0.00,890.000000,,2013-03-14 19:23:00,
2013-03-14 15:32:00,48.0,7.0,-100.00,NNW,341,4.0,11.0,18,0.00,,,0.00,890.000000,,2013-03-14 19:32:00,
2013-03-14 15:43:00,48.0,7.0,-100.00,NNW,341,4.0,11.0,18,0.00,,,0.00,890.000000,,2013-03-14 19:43:00,
2013-03-14 15:52:00,48.0,7.0,-100.00,NNW,341,4.0,11.0,18,0.00,,,0.00,890.000000,,2013-03-14 19:52:00,
2013-03-14 16:02:00,48.0,7.0,-100.00,NNW,341,4.0,11.0,18,0.00,,,0.00,890.000000,,2013-03-14 20:02:00,
2013-03-14 16:32:00,46.0,6.0,-100.00,NNW,327,5.0,12.0,19,0.00,,,0.00,617.000000,,2013-03-14 20:32:00,
2013-03-14 16:42:00,46.0,6.0,-100.00,NNW,327,5.0,12.0,19,0.00,,,0.00,617.000000,,2013-03-14 20:42:00,
2013-03-14 16:52:00,46.0,6.0,-100.00,NNW,327,5.0,12.0,19,0.00,,,0.00,617.000000,,2013-03-14 20:52:00,
2013-03-14 17:03:00,46.0,6.0,-100.00,NNW,327,5.0,12.0,19,0.00,,,0.00,617.000000,,2013-03-14 21:03:00,
2013-03-14 17:04:00,44.0,8.0,-100.00,NNW,331,5.0,12.0,22,0.00,,,0.00,336.000000,,2013-03-14 21:04:00,
2013-03-14 17:33:00,44.0,8.0,-100.00,NNW,331,5.0,12.0,22,0.00,,,0.00,336.000000,,2013-03-14 21:33:00,
2013-03-14 17:43:00,44.0,8.0,-100.00,NNW,331,5.0,12.0,22,0.00,,,0.00,336.000000,,2013-03-14 21:43:00,
2013-03-14 17:53:00,44.0,8.0,-100.00,NNW,331,5.0,12.0,22,0.00,,,0.00,336.000000,,2013-03-14 21:53:00,
2013-03-14 18:23:00,42.0,6.0,-100.00,NNW,330,5.0,11.0,22,0.00,,,0.00,155.000000,,2013-03-14 22:23:00,
2013-03-14 18:33:00,42.0,6.0,-100.00,NNW,330,5.0,11.0,22,0.00,,,0.00,155.000000,,2013-03-14 22:33:00,
2013-03-14 18:42:00,42.0,6.0,-100.00,NNW,330,5.0,11.0,22,0.00,,,0.00,155.000000,,2013-03-14 22:42:00,
2013-03-14 18:53:00,42.0,6.0,-100.00,NNW,330,5.0,11.0,22,0.00,,,0.00,155.000000,,2013-03-14 22:53:00,
2013-03-14 19:03:00,42.0,6.0,-100.00,NNW,330,5.0,11.0,22,0.00,,,0.00,155.000000,,2013-03-14 23:03:00,
2013-03-14 19:33:00,39.0,4.0,-100.00,NW,314,3.0,12.0,23,0.00,,,0.00,58.000000,,2013-03-14 23:33:00,
2013-03-14 19:43:00,39.0,4.0,-100.00,NW,314,3.0,12.0,23,0.00,,,0.00,58.000000,,2013-03-14 23:43:00,
2013-03-14 19:54:00,39.0,4.0,-100.00,NW,314,3.0,12.0,23,0.00,,,0.00,58.000000,,2013-03-14 23:54:00,
2013-03-14 20:02:00,39.0,4.0,-100.00,NW,314,3.0,12.0,23,0.00,,,0.00,58.000000,,2013-03-15 00:02:00,
2013-03-14 20:33:00,36.0,6.0,-100.00,NNW,338,5.0,10.0,28,0.00,,,0.00,6.000000,,2013-03-15 00:33:00,
2013-03-14 20:43:00,36.0,6.0,-100.00,NNW,338,5.0,10.0,28,0.00,,,0.00,6.000000,,2013-03-15 00:43:00,
2013-03-14 20:52:00,36.0,6.0,-100.00,NNW,338,5.0,10.0,28,0.00,,,0.00,6.000000,,2013-03-15 00:52:00,
2013-03-14 21:02:00,36.0,6.0,-100.00,NNW,338,5.0,10.0,28,0.00,,,0.00,6.000000,,2013-03-15 01:02:00,
2013-03-14 21:33:00,31.0,8.0,-100.00,NE,56,3.0,15.0,38,0.00,,,0.00,0.000000,,2013-03-15 01:33:00,
2013-03-14 21:43:00,31.0,8.0,-100.00,NE,56,3.0,15.0,38,0.00,,,0.00,0.000000,,2013-03-15 01:43:00,
2013-03-14 21:52:00,31.0,8.0,-100.00,NE,56,3.0,15.0,38,0.00,,,0.00,0.000000,,2013-03-15 01:52:00,
2013-03-14 22:03:00,31.0,8.0,-100.00,NE,56,3.0,15.0,38,0.00,,,0.00,0.000000,,2013-03-15 02:03:00,
2013-03-14 22:22:00,29.0,12.0,-100.00,NE,43,2.0,6.0,49,0.00,,,0.00,0.000000,,2013-03-15 02:22:00,
2013-03-14 22:32:00,29.0,12.0,-100.00,NE,43,2.0,6.0,49,0.00,,,0.00,0.000000,,2013-03-15 02:32:00,
2013-03-14 22:42:00,29.0,12.0,-100.00,NE,43,2.0,6.0,49,0.00,,,0.00,0.000000,,2013-03-15 02:42:00,
2013-03-14 22:52:00,29.0,12.0,-100.00,NE,43,2.0,6.0,49,0.00,,,0.00,0.000000,,2013-03-15 02:52:00,
2013-03-14 23:02:00,29.0,12.0,-100.00,NE,43,2.0,6.0,49,0.00,,,0.00,0.000000,,2013-03-15 03:02:00,
2013-03-14 23:33:00,28.0,12.0,-100.00,SW,232,2.0,6.0,51,0.00,,,0.00,0.000000,,2013-03-15 03:33:00,
2013-03-14 23:43:00,28.0,12.0,-100.00,SW,232,2.0,6.0,51,0.00,,,0.00,0.000000,,2013-03-15 03:43:00,
2013-03-14 23:53:00,28.0,12.0,-100.00,SW,232,2.0,6.0,51,0.00,,,0.00,0.000000,,2013-03-15 03:53:00,